createdAt,value
2023-05-02T00:01:15.433Z,7.23
2023-05-02T00:03:43.875Z,7.32
2023-05-02T00:06:12.122Z,7.26
2023-05-02T00:08:39.100Z,7.27
2023-05-02T00:11:05.952Z,7.23
2023-05-02T00:13:32.859Z,7.18
2023-05-02T00:15:59.547Z,7.12
2023-05-02T00:18:26.308Z,7.05
2023-05-02T00:20:53.232Z,7.03
2023-05-02T00:23:19.881Z,6.92
2023-05-02T00:25:46.810Z,6.96
2023-05-02T00:28:16.846Z,6.93
2023-05-02T00:30:47.215Z,6.87
2023-05-02T00:33:15.911Z,6.77
2023-05-02T00:35:42.728Z,6.82
2023-05-02T00:38:09.777Z,6.73
2023-05-02T00:40:52.133Z,6.73
2023-05-02T00:43:19.325Z,6.61
2023-05-02T00:45:46.531Z,6.63
2023-05-02T00:48:14.149Z,6.66
2023-05-02T00:50:42.600Z,6.60
2023-05-02T00:53:11.069Z,6.57
2023-05-02T00:55:38.374Z,6.62
2023-05-02T00:58:13.895Z,6.61
2023-05-02T01:00:57.394Z,6.44
2023-05-02T01:03:51.156Z,6.54
2023-05-02T01:06:39.717Z,6.54
2023-05-02T01:09:12.529Z,6.57
2023-05-02T01:11:56.907Z,6.51
2023-05-02T01:14:25.621Z,6.52
2023-05-02T01:16:53.566Z,6.51
2023-05-02T01:19:29.593Z,6.49
2023-05-02T01:21:57.454Z,6.46
2023-05-02T01:24:32.985Z,6.46
2023-05-02T01:27:24.854Z,6.42
2023-05-02T01:29:53.271Z,6.43
2023-05-02T01:32:23.407Z,6.42
2023-05-02T01:34:53.253Z,6.35
2023-05-02T01:37:21.922Z,6.39
2023-05-02T01:39:51.181Z,6.36
2023-05-02T01:42:19.935Z,6.33
2023-05-02T01:44:48.269Z,6.35
2023-05-02T01:47:15.618Z,6.35
2023-05-02T01:49:43.972Z,6.30
2023-05-02T01:52:13.254Z,6.36
2023-05-02T01:54:42.355Z,6.29
2023-05-02T01:57:11.732Z,6.29
2023-05-02T01:59:41.322Z,6.33
2023-05-02T02:02:10.876Z,6.33
2023-05-02T02:04:40.633Z,6.30
2023-05-02T02:07:09.897Z,6.29
2023-05-02T02:09:37.150Z,6.22
2023-05-02T02:12:12.128Z,6.17
2023-05-02T02:14:43.332Z,6.17
2023-05-02T02:17:15.404Z,6.12
2023-05-02T02:19:43.420Z,6.01
2023-05-02T02:22:13.640Z,6.14
2023-05-02T02:24:41.384Z,6.15
2023-05-02T02:27:10.885Z,6.09
2023-05-02T02:29:37.885Z,6.01
2023-05-02T02:32:08.263Z,6.02
2023-05-02T02:34:35.008Z,5.91
2023-05-02T02:37:11.190Z,6.05
2023-05-02T02:40:01.094Z,6.06
2023-05-02T02:42:45.552Z,6.04
2023-05-02T02:45:27.610Z,6.03
2023-05-02T02:48:28.132Z,6.00
2023-05-02T02:50:59.873Z,6.00
2023-05-02T02:53:33.990Z,5.96
2023-05-02T02:56:12.416Z,6.02
2023-05-02T02:58:49.359Z,6.04
2023-05-02T03:01:20.375Z,6.02
2023-05-02T03:03:49.656Z,5.90
2023-05-02T03:06:18.312Z,5.98
2023-05-02T03:08:45.363Z,5.99
2023-05-02T03:11:12.206Z,5.97
2023-05-02T03:13:39.163Z,6.00
2023-05-02T03:16:28.638Z,6.07
2023-05-02T03:18:55.505Z,6.08
2023-05-02T03:21:22.353Z,6.08
2023-05-02T03:23:48.994Z,6.09
2023-05-02T03:26:17.132Z,6.07
2023-05-02T03:28:46.702Z,6.10
2023-05-02T03:31:14.821Z,6.10
2023-05-02T03:33:41.696Z,6.07
2023-05-02T03:36:08.754Z,6.07
2023-05-02T03:38:35.411Z,6.08
2023-05-02T03:41:03.299Z,6.05
2023-05-02T03:43:30.632Z,6.07
2023-05-02T03:45:57.862Z,6.02
2023-05-02T03:48:24.955Z,6.10
2023-05-02T03:50:51.752Z,6.17
2023-05-02T03:53:18.426Z,6.16
2023-05-02T03:55:45.968Z,6.23
2023-05-02T03:58:12.795Z,6.26
2023-05-02T04:00:39.759Z,6.23
2023-05-02T04:03:07.362Z,6.23
2023-05-02T04:05:34.258Z,6.33
2023-05-02T04:08:01.538Z,6.34
2023-05-02T04:10:28.334Z,6.38
2023-05-02T04:12:55.415Z,6.42
2023-05-02T04:15:21.970Z,6.44
2023-05-02T04:17:48.935Z,6.47
2023-05-02T04:20:15.894Z,6.48
2023-05-02T04:22:42.601Z,6.59
2023-05-02T04:25:09.514Z,6.57
2023-05-02T04:27:36.360Z,6.60
2023-05-02T04:30:03.619Z,6.66
2023-05-02T04:32:30.615Z,6.62
2023-05-02T04:34:57.400Z,6.73
2023-05-02T04:37:24.535Z,6.85
2023-05-02T04:39:51.270Z,6.92
2023-05-02T04:42:18.162Z,6.95
2023-05-02T04:44:44.848Z,7.01
2023-05-02T04:47:12.383Z,7.05
2023-05-02T04:49:39.172Z,7.12
2023-05-02T04:52:10.886Z,7.22
2023-05-02T04:54:37.719Z,7.26
2023-05-02T04:57:06.907Z,7.33
2023-05-02T04:59:34.241Z,7.49
2023-05-02T05:02:01.576Z,7.58
2023-05-02T05:04:28.848Z,7.64
2023-05-02T05:06:55.626Z,7.78
2023-05-02T05:09:22.767Z,7.87
2023-05-02T05:11:49.636Z,8.00
2023-05-02T05:14:16.326Z,8.09
2023-05-02T05:16:43.285Z,8.15
2023-05-02T05:19:10.159Z,8.26
2023-05-02T05:21:36.997Z,8.38
2023-05-02T05:24:03.903Z,8.55
2023-05-02T05:26:30.947Z,8.67
2023-05-02T05:28:57.550Z,8.78
2023-05-02T05:31:24.698Z,8.91
2023-05-02T05:33:51.527Z,9.06
2023-05-02T05:36:18.610Z,9.22
2023-05-02T05:38:45.481Z,9.35
2023-05-02T05:41:12.696Z,9.50
2023-05-02T05:43:39.386Z,9.63
2023-05-02T05:46:06.212Z,9.76
2023-05-02T05:48:33.107Z,9.90
2023-05-02T05:51:07.043Z,10.14
2023-05-02T05:53:34.086Z,10.32
2023-05-02T05:56:12.325Z,10.66
2023-05-02T05:58:39.842Z,10.99
2023-05-02T06:01:07.305Z,11.28
2023-05-02T06:03:34.415Z,11.55
2023-05-02T06:06:01.726Z,11.76
2023-05-02T06:08:28.421Z,12.01
2023-05-02T06:10:55.153Z,12.19
2023-05-02T06:13:21.838Z,12.32
2023-05-02T06:15:48.447Z,12.58
2023-05-02T06:18:15.855Z,12.77
2023-05-02T06:20:42.803Z,12.95
2023-05-02T06:23:09.402Z,13.10
2023-05-02T06:25:39.241Z,13.32
2023-05-02T06:28:06.236Z,13.50
2023-05-02T06:30:32.936Z,13.69
2023-05-02T06:32:59.765Z,13.93
2023-05-02T06:35:26.852Z,14.11
2023-05-02T06:37:53.610Z,14.38
2023-05-02T06:40:20.331Z,14.58
2023-05-02T06:42:47.112Z,14.74
2023-05-02T06:45:14.064Z,15.11
2023-05-02T06:47:41.048Z,15.35
2023-05-02T06:50:08.352Z,15.65
2023-05-02T06:52:35.834Z,16.00
2023-05-02T06:55:02.828Z,16.19
2023-05-02T06:57:29.541Z,16.62
2023-05-02T06:59:56.419Z,16.81
2023-05-02T07:02:23.484Z,17.08
2023-05-02T07:04:50.224Z,17.25
2023-05-02T07:07:18.910Z,17.53
2023-05-02T07:09:45.946Z,17.83
2023-05-02T07:12:12.599Z,18.05
2023-05-02T07:14:39.670Z,18.31
2023-05-02T07:17:11.214Z,18.39
2023-05-02T07:19:37.861Z,18.56
2023-05-02T07:22:04.733Z,18.80
2023-05-02T07:24:31.445Z,19.01
2023-05-02T07:26:58.043Z,19.22
2023-05-02T07:29:25.136Z,19.41
2023-05-02T07:31:51.934Z,19.57
2023-05-02T07:34:18.551Z,19.61
2023-05-02T07:36:45.425Z,19.75
2023-05-02T07:39:12.230Z,19.98
2023-05-02T07:41:38.949Z,20.15
2023-05-02T07:44:05.756Z,20.27
2023-05-02T07:46:33.000Z,20.42
2023-05-02T07:48:59.925Z,20.71
2023-05-02T07:51:27.141Z,20.87
2023-05-02T07:53:56.135Z,21.07
2023-05-02T07:56:22.798Z,21.33
2023-05-02T07:58:51.554Z,21.46
2023-05-02T08:01:18.578Z,21.60
2023-05-02T08:03:46.159Z,21.88
2023-05-02T08:06:13.345Z,22.03
2023-05-02T08:08:40.216Z,22.16
2023-05-02T08:11:07.029Z,22.13
2023-05-02T08:13:33.784Z,21.93
2023-05-02T08:16:00.792Z,21.85
2023-05-02T08:18:27.727Z,21.90
2023-05-02T08:20:56.499Z,22.00
2023-05-02T08:23:23.684Z,22.17
2023-05-02T08:25:50.344Z,22.36
2023-05-02T08:28:17.411Z,22.55
2023-05-02T08:30:45.458Z,22.67
2023-05-02T08:33:12.209Z,22.65
2023-05-02T08:35:39.032Z,22.67
2023-05-02T08:38:05.739Z,22.58
2023-05-02T08:40:42.451Z,22.57
2023-05-02T08:43:11.938Z,22.66
2023-05-02T08:45:44.550Z,22.86
2023-05-02T08:48:15.177Z,22.98
2023-05-02T08:50:45.655Z,23.13
2023-05-02T08:53:14.506Z,23.22
2023-05-02T08:55:42.596Z,23.17
2023-05-02T08:58:10.900Z,23.18
2023-05-02T09:00:42.070Z,23.29
2023-05-02T09:03:27.583Z,23.49
2023-05-02T09:06:05.265Z,23.65
2023-05-02T09:08:32.119Z,23.74
2023-05-02T09:10:59.389Z,23.85
2023-05-02T09:13:30.674Z,24.07
2023-05-02T09:16:03.058Z,24.20
2023-05-02T09:18:38.230Z,24.22
2023-05-02T09:21:08.995Z,24.25
2023-05-02T09:23:40.359Z,24.32
2023-05-02T09:26:31.820Z,24.41
2023-05-02T09:29:03.446Z,24.49
2023-05-02T09:34:16.102Z,24.47
2023-05-02T09:36:47.507Z,24.47
2023-05-02T09:39:16.888Z,24.40
2023-05-02T09:41:45.475Z,24.32
2023-05-02T09:44:13.830Z,24.33
2023-05-02T09:46:44.300Z,24.44
2023-05-02T09:49:12.235Z,24.50
2023-05-02T09:51:39.212Z,24.61
2023-05-02T09:54:06.096Z,24.61
2023-05-02T09:56:56.990Z,24.58
2023-05-02T09:59:24.324Z,24.62
2023-05-02T10:01:59.595Z,24.62
2023-05-02T10:04:27.937Z,24.66
2023-05-02T10:06:55.472Z,24.79
2023-05-02T10:09:22.959Z,24.85
2023-05-02T10:11:55.258Z,24.96
2023-05-02T10:14:28.633Z,25.05
2023-05-02T10:17:13.304Z,25.14
2023-05-02T10:19:52.358Z,25.28
2023-05-02T10:22:23.274Z,25.27
2023-05-02T10:24:50.746Z,25.34
2023-05-02T10:27:17.811Z,25.38
2023-05-02T10:29:46.098Z,25.46
2023-05-02T10:32:15.013Z,25.45
2023-05-02T10:34:42.363Z,25.45
2023-05-02T10:37:11.068Z,25.48
2023-05-02T10:39:38.048Z,25.53
2023-05-02T10:42:06.438Z,25.51
2023-05-02T10:44:39.869Z,25.65
2023-05-02T10:47:22.735Z,25.83
2023-05-02T10:50:01.308Z,25.75
2023-05-02T10:52:38.787Z,25.68
2023-05-02T10:55:21.875Z,25.58
2023-05-02T10:57:58.609Z,25.56
2023-05-02T11:00:30.237Z,25.60
2023-05-02T11:02:57.324Z,25.58
2023-05-02T11:05:25.369Z,25.59
2023-05-02T11:08:19.443Z,25.65
2023-05-02T11:10:48.135Z,25.59
2023-05-02T11:13:14.909Z,25.64
2023-05-02T11:15:41.631Z,25.74
2023-05-02T11:18:09.655Z,25.77
2023-05-02T11:20:37.484Z,25.71
2023-05-02T11:23:22.312Z,25.78
2023-05-02T11:25:54.192Z,25.69
2023-05-02T11:28:39.401Z,25.78
2023-05-02T11:31:29.735Z,25.79
2023-05-02T11:34:01.281Z,25.96
2023-05-02T11:36:33.538Z,25.96
2023-05-02T11:39:01.752Z,25.99
2023-05-02T11:41:41.547Z,25.85
2023-05-02T11:44:08.393Z,25.68
2023-05-02T11:46:41.872Z,25.71
2023-05-02T11:49:09.845Z,25.77
2023-05-02T11:51:37.798Z,25.86
2023-05-02T11:54:07.690Z,25.88
2023-05-02T11:56:34.787Z,25.91
2023-05-02T11:59:03.894Z,25.99
2023-05-02T12:01:30.942Z,25.97
2023-05-02T12:04:07.054Z,26.04
2023-05-02T12:06:34.400Z,26.12
2023-05-02T12:09:09.282Z,26.15
2023-05-02T12:11:38.161Z,26.12
2023-05-02T12:14:06.448Z,26.12
2023-05-02T12:16:33.508Z,26.19
2023-05-02T12:19:01.299Z,26.30
2023-05-02T12:21:33.188Z,26.38
2023-05-02T12:24:02.478Z,26.35
2023-05-02T12:26:33.777Z,26.29
2023-05-02T12:29:02.905Z,26.13
2023-05-02T12:31:31.698Z,25.88
2023-05-02T12:34:00.347Z,25.66
2023-05-02T12:36:31.224Z,25.47
2023-05-02T12:39:00.008Z,25.51
2023-05-02T12:41:37.531Z,25.52
2023-05-02T12:44:05.633Z,25.56
2023-05-02T12:46:32.850Z,25.65
2023-05-02T12:49:10.171Z,25.75
2023-05-02T12:51:37.257Z,25.87
2023-05-02T12:54:05.222Z,25.97
2023-05-02T12:56:43.902Z,26.01
2023-05-02T12:59:27.631Z,26.10
2023-05-02T13:01:54.934Z,26.11
2023-05-02T13:04:21.656Z,26.12
2023-05-02T13:06:48.379Z,26.09
2023-05-02T13:09:15.285Z,26.13
2023-05-02T13:11:42.613Z,26.11
2023-05-02T13:14:11.528Z,26.12
2023-05-02T13:16:38.809Z,26.13
2023-05-02T13:19:05.752Z,26.12
2023-05-02T13:21:32.522Z,26.15
2023-05-02T13:23:59.726Z,26.16
2023-05-02T13:26:26.375Z,26.14
2023-05-02T13:28:53.041Z,26.12
2023-05-02T13:31:20.215Z,26.17
2023-05-02T13:33:46.873Z,26.22
2023-05-02T13:36:13.503Z,26.18
2023-05-02T13:38:40.503Z,26.14
2023-05-02T13:41:07.148Z,26.20
2023-05-02T13:43:33.877Z,26.16
2023-05-02T13:46:00.961Z,26.09
2023-05-02T13:48:30.153Z,26.11
2023-05-02T13:50:57.673Z,26.07
2023-05-02T13:53:24.687Z,26.02
2023-05-02T13:55:51.776Z,26.00
2023-05-02T13:58:18.534Z,25.93
2023-05-02T14:00:47.514Z,25.84
2023-05-02T14:03:14.657Z,25.71
2023-05-02T14:05:43.886Z,25.67
2023-05-02T14:08:11.507Z,25.63
2023-05-02T14:10:38.808Z,25.60
2023-05-02T14:13:05.788Z,25.59
2023-05-02T14:15:32.616Z,25.48
2023-05-02T14:18:05.584Z,25.20
2023-05-02T14:20:38.570Z,25.01
2023-05-02T14:23:11.436Z,24.83
2023-05-02T14:25:38.271Z,24.74
2023-05-02T14:28:05.973Z,24.74
2023-05-02T14:30:39.432Z,24.76
2023-05-02T14:33:06.693Z,24.88
2023-05-02T14:35:33.380Z,24.92
2023-05-02T14:38:06.446Z,24.95
2023-05-02T14:40:33.193Z,24.94
2023-05-02T14:43:00.229Z,24.97
2023-05-02T14:45:33.412Z,24.91
2023-05-02T14:48:06.637Z,24.81
2023-05-02T14:50:33.268Z,24.70
2023-05-02T14:52:59.866Z,24.50
2023-05-02T14:55:33.549Z,24.44
2023-05-02T14:58:00.788Z,24.39
2023-05-02T15:00:27.413Z,24.33
2023-05-02T15:02:54.302Z,24.41
2023-05-02T15:05:21.162Z,24.46
2023-05-02T15:07:47.944Z,24.39
2023-05-02T15:10:14.713Z,24.36
2023-05-02T15:12:43.226Z,24.33
2023-05-02T15:15:10.415Z,24.29
2023-05-02T15:17:37.168Z,24.22
2023-05-02T15:20:04.630Z,24.24
2023-05-02T15:22:31.714Z,24.24
2023-05-02T15:24:58.484Z,24.24
2023-05-02T15:27:25.144Z,24.28
2023-05-02T15:29:51.817Z,24.24
2023-05-02T15:32:18.856Z,24.25
2023-05-02T15:34:46.658Z,24.19
2023-05-02T15:37:13.254Z,24.20
2023-05-02T15:39:40.050Z,24.20
2023-05-02T15:42:06.950Z,24.14
2023-05-02T15:44:37.510Z,24.18
2023-05-02T15:47:04.845Z,24.13
2023-05-02T15:49:34.706Z,24.14
2023-05-02T15:52:02.417Z,24.06
2023-05-02T15:54:29.627Z,24.01
2023-05-02T15:56:57.187Z,23.93
2023-05-02T15:59:23.876Z,23.88
2023-05-02T16:01:50.848Z,23.85
2023-05-02T16:04:18.021Z,23.67
2023-05-02T16:06:44.881Z,23.48
2023-05-02T16:09:12.956Z,23.37
2023-05-02T16:11:39.952Z,23.23
2023-05-02T16:14:06.813Z,23.10
2023-05-02T16:16:34.298Z,22.95
2023-05-02T16:19:01.212Z,22.84
2023-05-02T16:21:27.862Z,22.81
2023-05-02T16:23:55.220Z,22.76
2023-05-02T16:26:22.114Z,22.67
2023-05-02T16:28:48.762Z,22.67
2023-05-02T16:31:19.231Z,22.63
2023-05-02T16:33:46.742Z,22.57
2023-05-02T16:36:14.762Z,22.54
2023-05-02T16:38:41.534Z,22.46
2023-05-02T16:41:08.893Z,22.38
2023-05-02T16:43:35.730Z,22.31
2023-05-02T16:46:04.449Z,22.22
2023-05-02T16:48:31.087Z,22.13
2023-05-02T16:50:58.165Z,22.04
2023-05-02T16:53:25.017Z,21.90
2023-05-02T16:55:51.669Z,21.68
2023-05-02T16:58:18.720Z,21.64
2023-05-02T17:00:45.670Z,21.50
2023-05-02T17:03:12.805Z,21.35
2023-05-02T17:05:39.584Z,21.24
2023-05-02T17:08:06.649Z,21.15
2023-05-02T17:10:34.094Z,21.02
2023-05-02T17:13:01.029Z,20.93
2023-05-02T17:15:28.183Z,20.73
2023-05-02T17:17:55.015Z,20.64
2023-05-02T17:20:21.988Z,20.45
2023-05-02T17:22:49.054Z,20.31
2023-05-02T17:25:15.986Z,20.18
2023-05-02T17:27:42.729Z,20.03
2023-05-02T17:30:10.061Z,19.87
2023-05-02T17:32:37.801Z,19.71
2023-05-02T17:35:05.196Z,19.49
2023-05-02T17:37:33.317Z,19.34
2023-05-02T17:40:02.221Z,19.20
2023-05-02T17:42:29.241Z,19.05
2023-05-02T17:44:56.449Z,19.09
2023-05-02T17:47:23.320Z,19.00
2023-05-02T17:49:51.338Z,19.00
2023-05-02T17:52:18.267Z,18.96
2023-05-02T17:54:45.754Z,18.85
2023-05-02T17:57:15.007Z,18.70
2023-05-02T17:59:42.126Z,18.50
2023-05-02T18:02:10.312Z,18.33
2023-05-02T18:04:37.469Z,18.13
2023-05-02T18:07:05.986Z,17.96
2023-05-02T18:09:33.181Z,17.83
2023-05-02T18:12:00.692Z,17.65
2023-05-02T18:14:27.459Z,17.49
2023-05-02T18:16:54.209Z,17.29
2023-05-02T18:19:22.038Z,17.08
2023-05-02T18:21:48.860Z,16.91
2023-05-02T18:24:15.792Z,16.84
2023-05-02T18:26:42.487Z,16.74
2023-05-02T18:29:09.365Z,16.54
2023-05-02T18:31:37.382Z,16.45
2023-05-02T18:34:04.612Z,16.38
2023-05-02T18:36:37.283Z,16.28
2023-05-02T18:39:04.125Z,16.15
2023-05-02T18:41:30.766Z,15.97
2023-05-02T18:43:58.730Z,15.83
2023-05-02T18:46:27.276Z,15.74
2023-05-02T18:48:53.991Z,15.62
2023-05-02T18:51:24.520Z,15.51
2023-05-02T18:53:51.609Z,15.38
2023-05-02T18:56:18.478Z,15.40
2023-05-02T18:58:46.262Z,15.14
2023-05-02T19:01:17.326Z,15.23
2023-05-02T19:03:44.584Z,15.15
2023-05-02T19:06:12.980Z,15.06
2023-05-02T19:08:42.511Z,14.93
2023-05-02T19:11:09.409Z,14.85
2023-05-02T19:13:36.074Z,14.86
2023-05-02T19:16:03.086Z,14.85
2023-05-02T19:18:29.813Z,14.80
2023-05-02T19:20:57.359Z,14.79
2023-05-02T19:23:24.348Z,14.70
2023-05-02T19:25:51.068Z,14.66
2023-05-02T19:28:17.866Z,14.59
2023-05-02T19:30:46.283Z,14.57
2023-05-02T19:33:14.395Z,14.44
2023-05-02T19:35:41.287Z,14.46
2023-05-02T19:38:07.985Z,14.40
2023-05-02T19:40:34.653Z,14.36
2023-05-02T19:43:01.642Z,14.24
2023-05-02T19:45:28.254Z,14.18
2023-05-02T19:47:54.917Z,14.16
2023-05-02T19:50:21.547Z,14.21
2023-05-02T19:52:52.126Z,14.21
2023-05-02T19:55:20.904Z,14.21
2023-05-02T19:57:49.043Z,14.26
2023-05-02T20:00:15.946Z,14.17
2023-05-02T20:02:42.729Z,14.14
2023-05-02T20:05:10.222Z,14.13
2023-05-02T20:07:36.966Z,14.12
2023-05-02T20:10:04.100Z,14.13
2023-05-02T20:12:31.172Z,13.89
2023-05-02T20:14:57.738Z,13.98
2023-05-02T20:17:24.487Z,13.88
2023-05-02T20:19:51.228Z,13.82
2023-05-02T20:22:18.250Z,13.80
2023-05-02T20:24:44.853Z,13.74
2023-05-02T20:27:12.010Z,13.66
2023-05-02T20:29:38.704Z,13.60
2023-05-02T20:32:05.748Z,13.57
2023-05-02T20:34:35.832Z,13.50
2023-05-02T20:37:05.477Z,13.40
2023-05-02T20:39:32.331Z,13.35
2023-05-02T20:41:59.341Z,13.25
2023-05-02T20:44:28.619Z,13.20
2023-05-02T20:46:55.419Z,13.14
2023-05-02T20:49:33.106Z,13.01
2023-05-02T20:52:05.859Z,12.95
2023-05-02T20:54:32.692Z,12.90
2023-05-02T20:56:59.362Z,12.82
2023-05-02T20:59:26.295Z,12.76
2023-05-02T21:01:53.127Z,12.60
2023-05-02T21:04:20.237Z,12.60
2023-05-02T21:06:47.183Z,12.50
2023-05-02T21:09:17.762Z,12.43
2023-05-02T21:11:45.374Z,12.39
2023-05-02T21:14:12.151Z,12.28
2023-05-02T21:16:39.153Z,12.23
2023-05-02T21:19:05.876Z,12.16
2023-05-02T21:21:32.670Z,12.13
2023-05-02T21:23:59.542Z,11.98
2023-05-02T21:26:26.326Z,11.92
2023-05-02T21:28:53.489Z,11.74
2023-05-02T21:31:20.288Z,11.78
2023-05-02T21:33:46.941Z,11.77
2023-05-02T21:36:14.159Z,11.72
2023-05-02T21:38:40.825Z,11.63
2023-05-02T21:41:07.460Z,11.53
2023-05-02T21:43:36.668Z,11.53
2023-05-02T21:46:03.407Z,11.44
2023-05-02T21:48:30.046Z,11.38
2023-05-02T21:50:57.105Z,11.36
2023-05-02T21:53:23.746Z,11.31
2023-05-02T21:55:50.611Z,11.25
2023-05-02T21:58:17.569Z,11.12
2023-05-02T22:00:44.630Z,11.06
2023-05-02T22:03:12.024Z,11.00
2023-05-02T22:05:42.470Z,10.94
2023-05-02T22:08:11.124Z,10.84
2023-05-02T22:10:40.254Z,10.76
2023-05-02T22:13:09.887Z,10.69
2023-05-02T22:15:36.721Z,10.67
2023-05-02T22:18:06.760Z,10.63
2023-05-02T22:20:33.795Z,10.54
2023-05-02T22:23:00.530Z,10.35
2023-05-02T22:25:27.468Z,10.44
2023-05-02T22:27:54.429Z,10.37
2023-05-02T22:30:21.168Z,10.32
2023-05-02T22:32:47.867Z,10.22
2023-05-02T22:35:15.139Z,10.19
2023-05-02T22:37:41.810Z,10.12
2023-05-02T22:40:10.345Z,10.01
2023-05-02T22:42:37.290Z,9.99
2023-05-02T22:45:04.555Z,9.83
2023-05-02T22:47:31.720Z,9.86
2023-05-02T22:50:04.069Z,9.77
2023-05-02T22:52:31.506Z,9.79
2023-05-02T22:54:58.254Z,9.67
2023-05-02T22:57:25.361Z,9.64
2023-05-02T22:59:52.056Z,9.60
2023-05-02T23:02:18.925Z,9.60
2023-05-02T23:04:45.998Z,9.60
2023-05-02T23:07:12.609Z,9.53
2023-05-02T23:09:39.429Z,9.47
2023-05-02T23:12:06.461Z,9.48
2023-05-02T23:14:33.114Z,9.43
2023-05-02T23:17:02.059Z,9.43
2023-05-02T23:19:29.106Z,9.46
2023-05-02T23:21:55.793Z,9.32
2023-05-02T23:24:22.859Z,9.40
2023-05-02T23:26:49.627Z,9.41
2023-05-02T23:29:17.702Z,9.19
2023-05-02T23:31:44.700Z,9.31
2023-05-02T23:34:16.128Z,9.26
2023-05-02T23:36:42.849Z,9.17
2023-05-02T23:39:09.968Z,9.11
2023-05-02T23:41:37.424Z,9.07
2023-05-02T23:44:04.979Z,9.05
2023-05-02T23:46:31.744Z,8.94
2023-05-02T23:48:58.670Z,8.94
2023-05-02T23:51:25.278Z,8.91
2023-05-02T23:53:52.012Z,8.82
2023-05-02T23:56:18.757Z,8.88
2023-05-02T23:58:46.066Z,8.78
